KFLL/FLL METAR and TAF weather

Enter ICAO airport designator
Station Type Date Time Source
KFLL METAR 2022/06/30 12:53 UTC NOAA

KFLL 301253Z 13008KT 10SM SCT025 SCT250 28/24 A3011 RMK AO2 SLP196 T02780239 $


Station Type Date Time Source
KFLL Decoded METAR 2022/06/30 12:53 UTC NOAA

FORT LAUDERDALE/HOLLYWOOD, FL, United States (KFLL) 26-04N 080-09W 30M
Jun 30, 2022 - 08:53 AM EDT / 2022.06.30 1253 UTC
Wind: from the SE (130 degrees) at 9 MPH (8 KT):0
Visibility: 10 mile(s):0
Sky conditions: partly cloudy
Temperature: 82.0 F (27.8 C)
Dew Point: 75.0 F (23.9 C)
Relative Humidity: 79%
Pressure (altimeter): 30.11 in. Hg (1019 hPa)
ob: KFLL 301253Z 13008KT 10SM SCT025 SCT250 28/24 A3011 RMK AO2 SLP196 T02780239
cycle: 13

Station Type Date Time Source
KFLL TAF 2022/06/30 12:37 UTC NOAA

TAF COR KFLL 301131Z 3012/0118 VRB04KT P6SM SCT025 SCT250
FM301500 13008KT P6SM VCSH SCT035 SCT060
FM301700 12012KT P6SM VCTS SCT030CB BKN050
FM302200 12008KT P6SM SCT030 BKN060
FM010800 VRB04KT P6SM VCSH SCT030 BKN060 PROB30 0114/0117 6SM TSRA BKN025CB

Example: see airport list